sensor_id;sensor_type;location;lat;lon;timestamp;pressure;altitude;pressure_sealevel;temperature;humidity
45071;BME280;30836;48.906;9.140;2022-11-20T00:00:27;981.28;;;13.18;49.86
45071;BME280;30836;48.906;9.140;2022-11-20T00:01:27;981.26;;;13.19;49.91
45071;BME280;30836;48.906;9.140;2022-11-20T00:02:28;981.24;;;13.20;49.90
45071;BME280;30836;48.906;9.140;2022-11-20T00:03:28;981.24;;;13.20;49.93
45071;BME280;30836;48.906;9.140;2022-11-20T00:04:29;981.24;;;13.20;49.99
45071;BME280;30836;48.906;9.140;2022-11-20T00:05:31;981.24;;;13.20;50.07
45071;BME280;30836;48.906;9.140;2022-11-20T00:06:32;981.22;;;13.21;50.01
45071;BME280;30836;48.906;9.140;2022-11-20T00:07:33;981.24;;;13.23;50.01
45071;BME280;30836;48.906;9.140;2022-11-20T00:08:33;981.24;;;13.23;50.09
45071;BME280;30836;48.906;9.140;2022-11-20T00:09:34;981.24;;;13.22;50.12
45071;BME280;30836;48.906;9.140;2022-11-20T00:10:37;981.24;;;13.23;50.06
45071;BME280;30836;48.906;9.140;2022-11-20T00:11:39;981.28;;;13.25;50.05
45071;BME280;30836;48.906;9.140;2022-11-20T00:12:39;981.26;;;13.26;50.09
45071;BME280;30836;48.906;9.140;2022-11-20T00:13:40;981.28;;;13.26;50.11
45071;BME280;30836;48.906;9.140;2022-11-20T00:14:41;981.28;;;13.25;50.15
45071;BME280;30836;48.906;9.140;2022-11-20T00:15:41;981.30;;;13.24;50.18
45071;BME280;30836;48.906;9.140;2022-11-20T00:16:41;981.30;;;13.24;50.21
45071;BME280;30836;48.906;9.140;2022-11-20T00:17:42;981.31;;;13.24;50.19
45071;BME280;30836;48.906;9.140;2022-11-20T00:18:42;981.31;;;13.24;50.11
45071;BME280;30836;48.906;9.140;2022-11-20T00:19:43;981.30;;;13.24;50.16
45071;BME280;30836;48.906;9.140;2022-11-20T00:20:44;981.30;;;13.24;50.22
45071;BME280;30836;48.906;9.140;2022-11-20T00:21:44;981.30;;;13.23;50.26
45071;BME280;30836;48.906;9.140;2022-11-20T00:21:54;981.31;;;13.18;50.23
45071;BME280;30836;48.906;9.140;2022-11-20T00:22:55;981.31;;;13.21;50.22
45071;BME280;30836;48.906;9.140;2022-11-20T00:23:55;981.30;;;13.24;50.14
45071;BME280;30836;48.906;9.140;2022-11-20T00:24:57;981.30;;;13.25;50.22
45071;BME280;30836;48.906;9.140;2022-11-20T00:26:00;981.33;;;13.26;50.25
45071;BME280;30836;48.906;9.140;2022-11-20T00:27:02;981.31;;;13.30;50.15
45071;BME280;30836;48.906;9.140;2022-11-20T00:28:03;981.30;;;13.43;49.70
45071;BME280;30836;48.906;9.140;2022-11-20T00:29:03;981.33;;;13.60;49.29
45071;BME280;30836;48.906;9.140;2022-11-20T00:30:04;981.31;;;13.78;48.88
45071;BME280;30836;48.906;9.140;2022-11-20T00:31:06;981.33;;;13.93;48.63
45071;BME280;30836;48.906;9.140;2022-11-20T00:32:08;981.31;;;14.07;48.37
45071;BME280;30836;48.906;9.140;2022-11-20T00:33:09;981.33;;;14.19;48.23
45071;BME280;30836;48.906;9.140;2022-11-20T00:34:09;981.31;;;14.28;48.07
45071;BME280;30836;48.906;9.140;2022-11-20T00:35:10;981.31;;;14.36;47.96
45071;BME280;30836;48.906;9.140;2022-11-20T00:36:14;981.30;;;14.43;47.85
45071;BME280;30836;48.906;9.140;2022-11-20T00:37:16;981.33;;;14.49;47.73
45071;BME280;30836;48.906;9.140;2022-11-20T00:38:17;981.31;;;14.53;47.60
45071;BME280;30836;48.906;9.140;2022-11-20T00:39:17;981.30;;;14.56;47.56
45071;BME280;30836;48.906;9.140;2022-11-20T00:40:18;981.31;;;14.60;47.51
45071;BME280;30836;48.906;9.140;2022-11-20T00:41:18;981.31;;;14.64;47.44
45071;BME280;30836;48.906;9.140;2022-11-20T00:42:19;981.31;;;14.67;47.42
45071;BME280;30836;48.906;9.140;2022-11-20T00:43:20;981.30;;;14.71;47.32
45071;BME280;30836;48.906;9.140;2022-11-20T00:44:20;981.31;;;14.74;47.21
45071;BME280;30836;48.906;9.140;2022-11-20T00:45:20;981.30;;;14.77;47.13
45071;BME280;30836;48.906;9.140;2022-11-20T00:46:22;981.30;;;14.79;47.04
45071;BME280;30836;48.906;9.140;2022-11-20T00:47:24;981.30;;;14.80;46.94
45071;BME280;30836;48.906;9.140;2022-11-20T00:48:24;981.28;;;14.81;46.96
45071;BME280;30836;48.906;9.140;2022-11-20T00:49:25;981.28;;;14.83;46.95
45071;BME280;30836;48.906;9.140;2022-11-20T00:50:25;981.28;;;14.84;46.92
45071;BME280;30836;48.906;9.140;2022-11-20T00:51:26;981.31;;;14.86;46.88
45071;BME280;30836;48.906;9.140;2022-11-20T00:52:27;981.30;;;14.87;46.87
45071;BME280;30836;48.906;9.140;2022-11-20T00:53:28;981.31;;;14.88;46.83
45071;BME280;30836;48.906;9.140;2022-11-20T00:54:28;981.31;;;14.90;46.80
45071;BME280;30836;48.906;9.140;2022-11-20T00:55:28;981.31;;;14.91;46.79
45071;BME280;30836;48.906;9.140;2022-11-20T00:56:29;981.30;;;14.93;46.74
45071;BME280;30836;48.906;9.140;2022-11-20T00:57:29;981.30;;;14.94;46.69
45071;BME280;30836;48.906;9.140;2022-11-20T00:59:37;981.30;;;14.96;46.62
45071;BME280;30836;48.906;9.140;2022-11-20T01:00:37;981.30;;;14.95;46.60
45071;BME280;30836;48.906;9.140;2022-11-20T01:01:37;981.31;;;14.94;46.63
45071;BME280;30836;48.906;9.140;2022-11-20T01:02:38;981.31;;;14.93;46.57
45071;BME280;30836;48.906;9.140;2022-11-20T01:03:40;981.30;;;14.92;46.62
45071;BME280;30836;48.906;9.140;2022-11-20T01:04:42;981.31;;;14.92;46.71
45071;BME280;30836;48.906;9.140;2022-11-20T01:05:43;981.30;;;14.93;46.63
45071;BME280;30836;48.906;9.140;2022-11-20T01:06:43;981.31;;;14.94;46.53
45071;BME280;30836;48.906;9.140;2022-11-20T01:07:44;981.30;;;14.95;46.46
45071;BME280;30836;48.906;9.140;2022-11-20T01:08:44;981.31;;;14.94;46.39
45071;BME280;30836;48.906;9.140;2022-11-20T01:09:45;981.35;;;14.93;46.44
45071;BME280;30836;48.906;9.140;2022-11-20T01:10:46;981.37;;;14.91;46.41
45071;BME280;30836;48.906;9.140;2022-11-20T01:11:46;981.35;;;14.89;46.49
45071;BME280;30836;48.906;9.140;2022-11-20T01:12:47;981.35;;;14.87;46.54
45071;BME280;30836;48.906;9.140;2022-11-20T01:13:48;981.35;;;14.87;46.58
45071;BME280;30836;48.906;9.140;2022-11-20T01:14:49;981.37;;;14.87;46.65
45071;BME280;30836;48.906;9.140;2022-11-20T01:15:50;981.35;;;14.87;46.65
45071;BME280;30836;48.906;9.140;2022-11-20T01:16:51;981.37;;;14.87;46.74
45071;BME280;30836;48.906;9.140;2022-11-20T01:17:52;981.37;;;14.87;46.73
45071;BME280;30836;48.906;9.140;2022-11-20T01:18:53;981.37;;;14.83;46.86
45071;BME280;30836;48.906;9.140;2022-11-20T01:19:55;981.37;;;14.71;47.32
45071;BME280;30836;48.906;9.140;2022-11-20T01:20:59;981.35;;;14.53;47.82
45071;BME280;30836;48.906;9.140;2022-11-20T01:22:01;981.37;;;14.38;48.09
45071;BME280;30836;48.906;9.140;2022-11-20T01:23:02;981.35;;;14.25;48.38
45071;BME280;30836;48.906;9.140;2022-11-20T01:24:04;981.33;;;14.13;48.67
45071;BME280;30836;48.906;9.140;2022-11-20T01:25:06;981.35;;;14.05;48.85
45071;BME280;30836;48.906;9.140;2022-11-20T01:26:08;981.39;;;14.07;48.61
45071;BME280;30836;48.906;9.140;2022-11-20T01:27:13;981.39;;;14.16;48.36
45071;BME280;30836;48.906;9.140;2022-11-20T01:28:13;981.41;;;14.26;48.03
45071;BME280;30836;48.906;9.140;2022-11-20T01:29:15;981.41;;;14.35;48.01
45071;BME280;30836;48.906;9.140;2022-11-20T01:30:18;981.37;;;14.41;47.90
45071;BME280;30836;48.906;9.140;2022-11-20T01:31:19;981.43;;;14.47;47.74
45071;BME280;30836;48.906;9.140;2022-11-20T01:32:21;981.41;;;14.51;47.68
45071;BME280;30836;48.906;9.140;2022-11-20T01:33:22;981.41;;;14.55;47.69
45071;BME280;30836;48.906;9.140;2022-11-20T01:34:23;981.37;;;14.57;47.70
45071;BME280;30836;48.906;9.140;2022-11-20T01:35:23;981.41;;;14.60;47.54
45071;BME280;30836;48.906;9.140;2022-11-20T01:36:24;981.39;;;14.62;47.50
45071;BME280;30836;48.906;9.140;2022-11-20T01:37:29;981.37;;;14.64;47.45
45071;BME280;30836;48.906;9.140;2022-11-20T01:38:29;981.39;;;14.65;47.42
45071;BME280;30836;48.906;9.140;2022-11-20T01:39:30;981.39;;;14.66;47.35
45071;BME280;30836;48.906;9.140;2022-11-20T01:40:30;981.37;;;14.67;47.31
45071;BME280;30836;48.906;9.140;2022-11-20T01:41:31;981.35;;;14.69;47.33
45071;BME280;30836;48.906;9.140;2022-11-20T01:42:33;981.37;;;14.71;47.30
45071;BME280;30836;48.906;9.140;2022-11-20T01:43:33;981.39;;;14.74;47.22
45071;BME280;30836;48.906;9.140;2022-11-20T01:46:55;981.37;;;14.80;47.14
45071;BME280;30836;48.906;9.140;2022-11-20T01:48:01;981.37;;;14.82;47.15
45071;BME280;30836;48.906;9.140;2022-11-20T01:49:04;981.37;;;14.84;47.13
45071;BME280;30836;48.906;9.140;2022-11-20T01:52:28;981.37;;;14.90;46.95
45071;BME280;30836;48.906;9.140;2022-11-20T01:53:34;981.39;;;14.92;46.94
45071;BME280;30836;48.906;9.140;2022-11-20T01:54:39;981.37;;;14.93;46.97
45071;BME280;30836;48.906;9.140;2022-11-20T01:55:50;981.37;;;14.94;46.96
45071;BME280;30836;48.906;9.140;2022-11-20T01:56:55;981.37;;;14.93;47.00
45071;BME280;30836;48.906;9.140;2022-11-20T01:57:58;981.35;;;14.84;47.26
45071;BME280;30836;48.906;9.140;2022-11-20T01:59:02;981.35;;;14.70;47.66
45071;BME280;30836;48.906;9.140;2022-11-20T02:00:09;981.35;;;14.58;47.92
45071;BME280;30836;48.906;9.140;2022-11-20T02:01:13;981.35;;;14.52;47.93
45071;BME280;30836;48.906;9.140;2022-11-20T02:02:14;981.35;;;14.47;48.07
45071;BME280;30836;48.906;9.140;2022-11-20T02:03:18;981.35;;;14.38;48.40
45071;BME280;30836;48.906;9.140;2022-11-20T02:04:19;981.37;;;14.30;48.55
45071;BME280;30836;48.906;9.140;2022-11-20T02:06:30;981.37;;;14.21;48.69
45071;BME280;30836;48.906;9.140;2022-11-20T02:07:38;981.39;;;14.17;48.72
45071;BME280;30836;48.906;9.140;2022-11-20T02:08:39;981.41;;;14.13;48.92
45071;BME280;30836;48.906;9.140;2022-11-20T02:09:40;981.39;;;14.07;49.11
45071;BME280;30836;48.906;9.140;2022-11-20T02:10:40;981.39;;;14.01;49.26
45071;BME280;30836;48.906;9.140;2022-11-20T02:11:40;981.41;;;13.96;49.41
45071;BME280;30836;48.906;9.140;2022-11-20T02:12:41;981.37;;;13.93;49.52
45071;BME280;30836;48.906;9.140;2022-11-20T02:13:41;981.37;;;13.90;49.59
45071;BME280;30836;48.906;9.140;2022-11-20T02:14:42;981.37;;;13.88;49.66
45071;BME280;30836;48.906;9.140;2022-11-20T02:15:42;981.35;;;13.85;49.75
45071;BME280;30836;48.906;9.140;2022-11-20T02:16:44;981.31;;;13.83;49.75
45071;BME280;30836;48.906;9.140;2022-11-20T02:17:46;981.31;;;13.83;49.78
45071;BME280;30836;48.906;9.140;2022-11-20T02:18:48;981.30;;;13.82;49.85
45071;BME280;30836;48.906;9.140;2022-11-20T02:19:49;981.30;;;13.82;49.81
45071;BME280;30836;48.906;9.140;2022-11-20T02:20:52;981.28;;;13.81;49.87
45071;BME280;30836;48.906;9.140;2022-11-20T02:23:11;981.28;;;13.85;49.79
45071;BME280;30836;48.906;9.140;2022-11-20T02:24:17;981.28;;;13.87;49.72
45071;BME280;30836;48.906;9.140;2022-11-20T02:25:19;981.30;;;13.92;49.61
45071;BME280;30836;48.906;9.140;2022-11-20T02:26:20;981.28;;;13.98;49.47
45071;BME280;30836;48.906;9.140;2022-11-20T02:27:23;981.28;;;14.00;49.49
45071;BME280;30836;48.906;9.140;2022-11-20T02:28:23;981.26;;;13.97;49.54
45071;BME280;30836;48.906;9.140;2022-11-20T02:29:25;981.24;;;13.93;49.46
45071;BME280;30836;48.906;9.140;2022-11-20T02:30:29;981.26;;;13.89;49.64
45071;BME280;30836;48.906;9.140;2022-11-20T02:31:35;981.26;;;13.87;49.70
45071;BME280;30836;48.906;9.140;2022-11-20T02:32:40;981.24;;;13.86;49.65
45071;BME280;30836;48.906;9.140;2022-11-20T02:33:40;981.26;;;13.85;49.65
45071;BME280;30836;48.906;9.140;2022-11-20T02:34:41;981.26;;;13.84;49.66
45071;BME280;30836;48.906;9.140;2022-11-20T02:35:42;981.26;;;13.82;49.65
45071;BME280;30836;48.906;9.140;2022-11-20T02:36:44;981.24;;;13.83;49.43
45071;BME280;30836;48.906;9.140;2022-11-20T02:37:47;981.28;;;13.91;48.98
45071;BME280;30836;48.906;9.140;2022-11-20T02:38:49;981.28;;;14.05;48.64
45071;BME280;30836;48.906;9.140;2022-11-20T02:39:51;981.30;;;14.22;48.26
45071;BME280;30836;48.906;9.140;2022-11-20T02:40:51;981.31;;;14.36;47.93
45071;BME280;30836;48.906;9.140;2022-11-20T02:41:55;981.30;;;14.48;47.76
45071;BME280;30836;48.906;9.140;2022-11-20T02:42:57;981.33;;;14.58;47.51
45071;BME280;30836;48.906;9.140;2022-11-20T02:43:57;981.31;;;14.66;47.47
45071;BME280;30836;48.906;9.140;2022-11-20T02:44:58;981.33;;;14.71;47.30
45071;BME280;30836;48.906;9.140;2022-11-20T02:45:58;981.35;;;14.76;47.23
45071;BME280;30836;48.906;9.140;2022-11-20T02:46:59;981.35;;;14.82;47.10
45071;BME280;30836;48.906;9.140;2022-11-20T02:47:59;981.37;;;14.88;46.98
45071;BME280;30836;48.906;9.140;2022-11-20T02:49:01;981.35;;;14.92;46.79
45071;BME280;30836;48.906;9.140;2022-11-20T02:50:03;981.33;;;14.95;46.66
45071;BME280;30836;48.906;9.140;2022-11-20T02:51:05;981.33;;;14.97;46.59
45071;BME280;30836;48.906;9.140;2022-11-20T02:52:05;981.30;;;14.98;46.55
45071;BME280;30836;48.906;9.140;2022-11-20T02:53:06;981.30;;;15.00;46.37
45071;BME280;30836;48.906;9.140;2022-11-20T02:54:06;981.30;;;14.98;46.04
45071;BME280;30836;48.906;9.140;2022-11-20T02:55:07;981.30;;;14.93;46.02
45071;BME280;30836;48.906;9.140;2022-11-20T02:56:07;981.26;;;14.92;45.99
45071;BME280;30836;48.906;9.140;2022-11-20T02:57:08;981.26;;;14.92;45.99
45071;BME280;30836;48.906;9.140;2022-11-20T02:58:08;981.26;;;14.91;45.84
45071;BME280;30836;48.906;9.140;2022-11-20T02:59:09;981.26;;;14.90;45.87
45071;BME280;30836;48.906;9.140;2022-11-20T03:00:10;981.24;;;14.89;45.82
45071;BME280;30836;48.906;9.140;2022-11-20T03:01:11;981.24;;;14.88;45.60
45071;BME280;30836;48.906;9.140;2022-11-20T03:02:11;981.24;;;14.84;45.68
45071;BME280;30836;48.906;9.140;2022-11-20T03:03:12;981.20;;;14.76;45.56
45071;BME280;30836;48.906;9.140;2022-11-20T03:04:12;981.22;;;14.72;45.58
45071;BME280;30836;48.906;9.140;2022-11-20T03:05:12;981.24;;;14.74;45.49
45071;BME280;30836;48.906;9.140;2022-11-20T03:06:13;981.24;;;14.75;45.50
45071;BME280;30836;48.906;9.140;2022-11-20T03:07:13;981.22;;;14.73;45.49
45071;BME280;30836;48.906;9.140;2022-11-20T03:08:14;981.22;;;14.67;45.57
45071;BME280;30836;48.906;9.140;2022-11-20T03:09:14;981.20;;;14.62;45.67
45071;BME280;30836;48.906;9.140;2022-11-20T03:10:15;981.22;;;14.61;45.68
45071;BME280;30836;48.906;9.140;2022-11-20T03:11:15;981.24;;;14.64;45.62
45071;BME280;30836;48.906;9.140;2022-11-20T03:12:16;981.20;;;14.67;45.53
45071;BME280;30836;48.906;9.140;2022-11-20T03:13:16;981.22;;;14.70;45.56
45071;BME280;30836;48.906;9.140;2022-11-20T03:14:17;981.24;;;14.71;45.57
45071;BME280;30836;48.906;9.140;2022-11-20T03:15:17;981.24;;;14.72;45.58
45071;BME280;30836;48.906;9.140;2022-11-20T03:16:19;981.22;;;14.74;45.53
45071;BME280;30836;48.906;9.140;2022-11-20T03:17:21;981.22;;;14.69;45.70
45071;BME280;30836;48.906;9.140;2022-11-20T03:18:21;981.18;;;14.62;45.84
45071;BME280;30836;48.906;9.140;2022-11-20T03:19:22;981.16;;;14.60;45.65
45071;BME280;30836;48.906;9.140;2022-11-20T03:20:22;981.18;;;14.61;45.62
45071;BME280;30836;48.906;9.140;2022-11-20T03:21:23;981.16;;;14.63;45.55
45071;BME280;30836;48.906;9.140;2022-11-20T03:22:24;981.12;;;14.61;45.49
45071;BME280;30836;48.906;9.140;2022-11-20T03:23:24;981.14;;;14.54;45.71
45071;BME280;30836;48.906;9.140;2022-11-20T03:24:25;981.10;;;14.53;45.61
45071;BME280;30836;48.906;9.140;2022-11-20T03:25:26;981.10;;;14.56;45.57
45071;BME280;30836;48.906;9.140;2022-11-20T03:26:26;981.12;;;14.59;45.47
45071;BME280;30836;48.906;9.140;2022-11-20T03:27:31;981.10;;;14.63;45.36
45071;BME280;30836;48.906;9.140;2022-11-20T03:28:32;981.10;;;14.66;45.36
45071;BME280;30836;48.906;9.140;2022-11-20T03:29:34;981.06;;;14.69;45.35
45071;BME280;30836;48.906;9.140;2022-11-20T03:30:35;981.06;;;14.68;45.21
45071;BME280;30836;48.906;9.140;2022-11-20T03:31:39;981.08;;;14.64;45.36
45071;BME280;30836;48.906;9.140;2022-11-20T03:32:40;981.04;;;14.59;45.45
45071;BME280;30836;48.906;9.140;2022-11-20T03:33:41;981.04;;;14.54;45.50
45071;BME280;30836;48.906;9.140;2022-11-20T03:34:42;981.04;;;14.51;45.40
45071;BME280;30836;48.906;9.140;2022-11-20T03:35:42;981.02;;;14.49;45.61
45071;BME280;30836;48.906;9.140;2022-11-20T03:36:43;981.02;;;14.47;45.71
45071;BME280;30836;48.906;9.140;2022-11-20T03:37:43;981.04;;;14.48;45.67
45071;BME280;30836;48.906;9.140;2022-11-20T03:38:44;981.06;;;14.50;45.63
45071;BME280;30836;48.906;9.140;2022-11-20T03:39:45;981.04;;;14.50;45.51
45071;BME280;30836;48.906;9.140;2022-11-20T03:40:45;981.08;;;14.50;45.48
45071;BME280;30836;48.906;9.140;2022-11-20T03:41:45;981.06;;;14.45;45.62
45071;BME280;30836;48.906;9.140;2022-11-20T03:42:46;981.08;;;14.34;45.92
45071;BME280;30836;48.906;9.140;2022-11-20T03:43:47;981.06;;;14.22;46.23
45071;BME280;30836;48.906;9.140;2022-11-20T03:44:48;981.06;;;14.17;46.07
45071;BME280;30836;48.906;9.140;2022-11-20T03:45:49;981.10;;;14.20;46.06
45071;BME280;30836;48.906;9.140;2022-11-20T03:46:49;981.06;;;14.26;45.86
45071;BME280;30836;48.906;9.140;2022-11-20T03:47:50;981.06;;;14.31;45.91
45071;BME280;30836;48.906;9.140;2022-11-20T03:48:50;981.06;;;14.34;45.82
45071;BME280;30836;48.906;9.140;2022-11-20T03:49:51;981.04;;;14.32;45.90
45071;BME280;30836;48.906;9.140;2022-11-20T03:51:13;981.06;;;14.24;46.22
45071;BME280;30836;48.906;9.140;2022-11-20T03:52:02;981.06;;;14.19;46.15
45071;BME280;30836;48.906;9.140;2022-11-20T03:53:02;981.08;;;14.21;46.14
45071;BME280;30836;48.906;9.140;2022-11-20T03:54:04;981.06;;;14.17;46.27
45071;BME280;30836;48.906;9.140;2022-11-20T03:55:06;981.06;;;14.06;46.59
45071;BME280;30836;48.906;9.140;2022-11-20T03:56:07;981.06;;;13.97;46.63
45071;BME280;30836;48.906;9.140;2022-11-20T03:57:08;981.06;;;13.93;46.65
45071;BME280;30836;48.906;9.140;2022-11-20T03:58:09;981.08;;;13.93;46.70
45071;BME280;30836;48.906;9.140;2022-11-20T03:59:10;981.06;;;13.98;46.52
45071;BME280;30836;48.906;9.140;2022-11-20T04:00:10;981.10;;;14.04;46.59
45071;BME280;30836;48.906;9.140;2022-11-20T04:01:14;981.08;;;14.08;46.65
45071;BME280;30836;48.906;9.140;2022-11-20T04:02:19;981.08;;;14.13;46.63
45071;BME280;30836;48.906;9.140;2022-11-20T04:03:20;981.08;;;14.19;46.55
45071;BME280;30836;48.906;9.140;2022-11-20T04:04:20;981.06;;;14.27;46.31
45071;BME280;30836;48.906;9.140;2022-11-20T04:05:20;981.04;;;14.31;46.16
45071;BME280;30836;48.906;9.140;2022-11-20T04:06:25;981.04;;;14.32;46.14
45071;BME280;30836;48.906;9.140;2022-11-20T04:07:29;981.02;;;14.29;46.17
45071;BME280;30836;48.906;9.140;2022-11-20T04:08:30;981.04;;;14.26;46.32
45071;BME280;30836;48.906;9.140;2022-11-20T04:09:31;981.04;;;14.27;46.19
45071;BME280;30836;48.906;9.140;2022-11-20T04:10:31;981.04;;;14.32;46.04
45071;BME280;30836;48.906;9.140;2022-11-20T04:11:33;981.02;;;14.35;45.97
45071;BME280;30836;48.906;9.140;2022-11-20T04:12:34;981.04;;;14.35;45.94
45071;BME280;30836;48.906;9.140;2022-11-20T04:13:35;981.02;;;14.37;45.91
45071;BME280;30836;48.906;9.140;2022-11-20T04:14:35;981.02;;;14.39;45.92
45071;BME280;30836;48.906;9.140;2022-11-20T04:15:36;981.02;;;14.40;45.94
45071;BME280;30836;48.906;9.140;2022-11-20T04:16:36;981.00;;;14.42;45.86
45071;BME280;30836;48.906;9.140;2022-11-20T04:17:37;981.04;;;14.46;45.76
45071;BME280;30836;48.906;9.140;2022-11-20T04:18:37;981.00;;;14.46;45.88
45071;BME280;30836;48.906;9.140;2022-11-20T04:19:38;981.00;;;14.44;45.80
45071;BME280;30836;48.906;9.140;2022-11-20T04:20:38;980.98;;;14.40;45.85
45071;BME280;30836;48.906;9.140;2022-11-20T04:21:39;981.00;;;14.31;46.33
45071;BME280;30836;48.906;9.140;2022-11-20T04:22:40;981.00;;;14.13;46.74
45071;BME280;30836;48.906;9.140;2022-11-20T04:23:40;980.98;;;13.97;46.94
45071;BME280;30836;48.906;9.140;2022-11-20T04:24:41;980.96;;;13.85;47.12
45071;BME280;30836;48.906;9.140;2022-11-20T04:25:41;980.96;;;13.75;47.28
45071;BME280;30836;48.906;9.140;2022-11-20T04:26:41;980.94;;;13.64;47.60
45071;BME280;30836;48.906;9.140;2022-11-20T04:27:42;980.96;;;13.52;47.67
45071;BME280;30836;48.906;9.140;2022-11-20T04:28:42;980.94;;;13.42;47.90
45071;BME280;30836;48.906;9.140;2022-11-20T04:29:43;980.96;;;13.35;47.94
45071;BME280;30836;48.906;9.140;2022-11-20T04:30:43;980.96;;;13.32;47.95
45071;BME280;30836;48.906;9.140;2022-11-20T04:31:44;980.94;;;13.28;48.11
45071;BME280;30836;48.906;9.140;2022-11-20T04:32:44;980.96;;;13.20;48.26
45071;BME280;30836;48.906;9.140;2022-11-20T04:33:45;980.98;;;13.08;48.60
45071;BME280;30836;48.906;9.140;2022-11-20T04:34:46;980.94;;;12.97;48.79
45071;BME280;30836;48.906;9.140;2022-11-20T04:35:46;980.96;;;12.91;48.80
45071;BME280;30836;48.906;9.140;2022-11-20T04:36:47;980.98;;;12.90;48.65
45071;BME280;30836;48.906;9.140;2022-11-20T04:37:50;980.92;;;12.87;49.00
45071;BME280;30836;48.906;9.140;2022-11-20T04:38:52;980.94;;;12.77;49.28
45071;BME280;30836;48.906;9.140;2022-11-20T04:39:53;980.98;;;12.71;49.20
45071;BME280;30836;48.906;9.140;2022-11-20T04:41:59;980.92;;;12.86;48.56
45071;BME280;30836;48.906;9.140;2022-11-20T04:43:00;980.92;;;13.08;48.07
45071;BME280;30836;48.906;9.140;2022-11-20T04:44:01;980.92;;;13.29;47.66
45071;BME280;30836;48.906;9.140;2022-11-20T04:45:03;980.96;;;13.45;47.22
45071;BME280;30836;48.906;9.140;2022-11-20T04:46:03;980.98;;;13.58;47.04
45071;BME280;30836;48.906;9.140;2022-11-20T04:47:04;980.96;;;13.65;46.94
45071;BME280;30836;48.906;9.140;2022-11-20T04:48:05;980.94;;;13.72;46.75
45071;BME280;30836;48.906;9.140;2022-11-20T04:49:05;980.94;;;13.79;46.73
45071;BME280;30836;48.906;9.140;2022-11-20T04:50:06;980.94;;;13.83;46.55
45071;BME280;30836;48.906;9.140;2022-11-20T04:51:07;980.96;;;13.88;46.40
45071;BME280;30836;48.906;9.140;2022-11-20T04:52:07;980.96;;;13.90;46.51
45071;BME280;30836;48.906;9.140;2022-11-20T04:53:08;980.96;;;13.87;46.44
45071;BME280;30836;48.906;9.140;2022-11-20T04:54:08;980.96;;;13.88;46.30
45071;BME280;30836;48.906;9.140;2022-11-20T04:55:11;980.98;;;13.93;46.25
45071;BME280;30836;48.906;9.140;2022-11-20T04:56:11;980.96;;;13.99;46.26
45071;BME280;30836;48.906;9.140;2022-11-20T04:57:13;980.98;;;14.05;46.11
45071;BME280;30836;48.906;9.140;2022-11-20T04:58:13;980.98;;;14.11;45.90
45071;BME280;30836;48.906;9.140;2022-11-20T04:59:14;980.96;;;14.16;45.74
45071;BME280;30836;48.906;9.140;2022-11-20T05:00:15;980.98;;;14.23;45.53
45071;BME280;30836;48.906;9.140;2022-11-20T05:01:17;980.94;;;14.28;45.33
45071;BME280;30836;48.906;9.140;2022-11-20T05:02:20;980.94;;;14.32;45.41
45071;BME280;30836;48.906;9.140;2022-11-20T05:03:20;980.92;;;14.33;45.60
45071;BME280;30836;48.906;9.140;2022-11-20T05:04:21;980.90;;;14.31;45.41
45071;BME280;30836;48.906;9.140;2022-11-20T05:05:21;980.90;;;14.32;45.37
45071;BME280;30836;48.906;9.140;2022-11-20T05:06:22;980.90;;;14.33;45.40
45071;BME280;30836;48.906;9.140;2022-11-20T05:07:23;980.92;;;14.34;45.35
45071;BME280;30836;48.906;9.140;2022-11-20T05:08:23;980.92;;;14.36;45.32
45071;BME280;30836;48.906;9.140;2022-11-20T05:09:23;980.92;;;14.38;45.13
45071;BME280;30836;48.906;9.140;2022-11-20T05:10:24;980.92;;;14.37;45.18
45071;BME280;30836;48.906;9.140;2022-11-20T05:11:25;980.90;;;14.35;45.26
45071;BME280;30836;48.906;9.140;2022-11-20T05:12:26;980.88;;;14.31;45.32
45071;BME280;30836;48.906;9.140;2022-11-20T05:13:26;980.92;;;14.25;45.36
45071;BME280;30836;48.906;9.140;2022-11-20T05:14:27;980.92;;;14.16;45.56
45071;BME280;30836;48.906;9.140;2022-11-20T05:15:27;980.90;;;14.15;45.42
45071;BME280;30836;48.906;9.140;2022-11-20T05:16:28;980.90;;;14.17;45.55
45071;BME280;30836;48.906;9.140;2022-11-20T05:17:28;980.94;;;14.13;45.63
45071;BME280;30836;48.906;9.140;2022-11-20T05:18:29;980.90;;;14.04;46.04
45071;BME280;30836;48.906;9.140;2022-11-20T05:19:29;980.90;;;13.93;46.17
45071;BME280;30836;48.906;9.140;2022-11-20T05:20:29;980.88;;;13.86;46.31
45071;BME280;30836;48.906;9.140;2022-11-20T05:21:30;980.90;;;13.86;46.27
45071;BME280;30836;48.906;9.140;2022-11-20T05:22:31;980.92;;;13.86;46.32
45071;BME280;30836;48.906;9.140;2022-11-20T05:23:32;980.94;;;13.83;46.28
45071;BME280;30836;48.906;9.140;2022-11-20T05:24:32;980.92;;;13.86;46.12
45071;BME280;30836;48.906;9.140;2022-11-20T05:25:33;980.90;;;13.91;46.11
45071;BME280;30836;48.906;9.140;2022-11-20T05:26:33;980.92;;;13.95;46.01
45071;BME280;30836;48.906;9.140;2022-11-20T05:27:33;980.92;;;13.99;45.90
45071;BME280;30836;48.906;9.140;2022-11-20T05:28:34;980.94;;;14.00;46.04
45071;BME280;30836;48.906;9.140;2022-11-20T05:29:34;980.92;;;13.94;46.22
45071;BME280;30836;48.906;9.140;2022-11-20T05:30:35;980.94;;;13.88;46.31
45071;BME280;30836;48.906;9.140;2022-11-20T05:31:35;980.94;;;13.87;46.25
45071;BME280;30836;48.906;9.140;2022-11-20T05:32:36;980.96;;;13.90;46.28
45071;BME280;30836;48.906;9.140;2022-11-20T05:33:37;980.94;;;13.97;46.12
45071;BME280;30836;48.906;9.140;2022-11-20T05:34:40;980.96;;;14.01;45.97
45071;BME280;30836;48.906;9.140;2022-11-20T05:35:40;980.96;;;13.98;46.24
45071;BME280;30836;48.906;9.140;2022-11-20T05:36:41;980.96;;;13.94;46.21
45071;BME280;30836;48.906;9.140;2022-11-20T05:37:41;980.94;;;13.97;46.07
45071;BME280;30836;48.906;9.140;2022-11-20T05:38:42;980.94;;;13.99;46.21
45071;BME280;30836;48.906;9.140;2022-11-20T05:39:43;980.92;;;13.91;46.58
45071;BME280;30836;48.906;9.140;2022-11-20T05:40:44;980.90;;;13.79;46.76
45071;BME280;30836;48.906;9.140;2022-11-20T05:41:44;980.90;;;13.78;46.61